Time;durP1;ratioP1;P1;durP2;ratioP2;P2;SDS_P1;SDS_P2;PMS_P1;PMS_P2;Temp;Humidity;BMP_temperature;BMP_pressure;BME280_temperature;BME280_humidity;BME280_pressure;Samples;Min_cycle;Max_cycle;Signal;HPM_P1;HPM_P2
2023/05/31 00:02:07;;;;;;;1.65;1.30;;;19.10;73.70;;;;;;5011279;28;20507;-30
2023/05/31 00:04:33;;;;;;;2.28;1.55;;;19.60;64.80;;;;;;5011998;28;20474;-31
2023/05/31 00:07:00;;;;;;;2.85;1.45;;;19.00;72.80;;;;;;5011902;28;20129;-31
2023/05/31 00:09:27;;;;;;;1.73;1.48;;;19.10;73.10;;;;;;5011730;28;20551;-30
2023/05/31 00:11:55;;;;;;;2.22;1.30;;;19.20;57.00;;;;;;5011719;28;20056;-31
2023/05/31 00:14:22;;;;;;;1.80;1.30;;;;;;;;;;5011387;28;20052;-31
2023/05/31 00:16:49;;;;;;;1.60;1.45;;;20.40;73.40;;;;;;5011546;28;20049;-30
2023/05/31 00:19:15;;;;;;;1.67;1.38;;;19.60;73.90;;;;;;5011802;28;20124;-31
2023/05/31 00:21:43;;;;;;;1.63;1.23;;;19.40;64.70;;;;;;5011650;28;20521;-31
2023/05/31 00:24:10;;;;;;;2.08;1.40;;;19.30;60.70;;;;;;5011354;28;20049;-30
2023/05/31 00:26:37;;;;;;;1.85;1.40;;;19.90;58.40;;;;;;5011380;28;20050;-30
2023/05/31 00:29:05;;;;;;;1.55;1.45;;;19.30;73.00;;;;;;5012568;28;20490;-31
2023/05/31 00:31:31;;;;;;;1.67;1.27;;;19.20;73.90;;;;;;5015024;28;20056;-30
2023/05/31 00:33:58;;;;;;;1.73;1.40;;;;;;;;;;5015020;28;20479;-31
2023/05/31 00:36:25;;;;;;;2.10;1.40;;;19.80;73.40;;;;;;5014422;28;20053;-30
2023/05/31 00:38:52;;;;;;;1.90;1.50;;;19.20;73.10;;;;;;5015381;28;20050;-30
2023/05/31 00:41:19;;;;;;;2.47;1.60;;;19.10;65.00;;;;;;5015388;28;20132;-31
2023/05/31 00:43:45;;;;;;;1.55;1.27;;;19.40;73.60;;;;;;5014966;28;20485;-30
2023/05/31 00:46:21;;;;;;;1.60;1.40;;;19.30;73.20;;;;;;5014718;28;20108;-30
2023/05/31 00:48:48;;;;;;;1.58;1.35;;;19.70;74.20;;;;;;5015273;28;20045;-30
2023/05/31 00:51:15;;;;;;;2.97;1.73;;;;;;;;;;5014805;28;20056;-31
2023/05/31 00:53:44;;;;;;;1.52;1.33;;;18.30;73.10;;;;;;5014582;28;20136;-30
2023/05/31 00:56:10;;;;;;;1.52;1.30;;;19.00;72.90;;;;;;5014676;28;20073;-30
2023/05/31 00:58:37;;;;;;;1.52;1.30;;;19.20;64.30;;;;;;5014186;28;20517;-31
2023/05/31 01:01:04;;;;;;;1.55;1.40;;;19.70;73.40;;;;;;5014819;28;20104;-31
2023/05/31 01:03:32;;;;;;;2.17;1.40;;;19.40;55.80;;;;;;5014483;28;20049;-32
2023/05/31 01:06:00;;;;;;;2.00;1.30;;;;;;;;;;5014519;28;20133;-32
2023/05/31 01:08:26;;;;;;;1.90;1.48;;;19.40;74.30;;;;;;5014898;28;20046;-30
2023/05/31 01:10:53;;;;;;;1.65;1.25;;;;;;;;;;5014823;28;20481;-32
2023/05/31 01:13:22;;;;;;;2.28;1.50;;;18.70;71.20;;;;;;5013713;28;20069;-30
2023/05/31 01:15:53;;;;;;;1.88;1.45;;;19.50;73.30;;;;;;5014543;28;20057;-30
2023/05/31 01:18:25;;;;;;;1.92;1.48;;;19.30;55.80;;;;;;5014454;28;20060;-32
2023/05/31 01:20:54;;;;;;;2.78;1.30;;;19.00;56.60;;;;;;5014193;28;20052;-31
2023/05/31 01:23:30;;;;;;;1.58;1.35;;;19.20;73.30;;;;;;5013812;28;20507;-31
2023/05/31 01:26:04;;;;;;;4.68;2.25;;;19.30;73.40;;;;;;5013823;28;20503;-30
2023/05/31 01:28:33;;;;;;;1.73;1.45;;;18.90;73.60;;;;;;5014321;28;20133;-31
2023/05/31 01:31:06;;;;;;;2.08;1.45;;;19.40;70.60;;;;;;5014108;28;20050;-31
2023/05/31 01:33:34;;;;;;;2.30;1.70;;;19.00;58.10;;;;;;5014123;28;20056;-30
2023/05/31 01:36:00;;;;;;;1.95;1.40;;;18.30;60.40;;;;;;5013587;28;20050;-31
2023/05/31 01:38:27;;;;;;;1.90;1.40;;;19.00;74.00;;;;;;5014209;28;20046;-30
2023/05/31 01:40:54;;;;;;;1.67;1.55;;;18.70;73.40;;;;;;5012856;28;20569;-30
2023/05/31 01:43:21;;;;;;;1.88;1.40;;;;;;;;;;5013793;28;20128;-31
2023/05/31 01:45:49;;;;;;;1.70;1.40;;;19.30;74.30;;;;;;5013829;28;20053;-30
2023/05/31 01:48:16;;;;;;;1.88;1.42;;;20.20;74.00;;;;;;5013852;28;20053;-30
2023/05/31 01:50:43;;;;;;;2.30;1.25;;;;;;;;;;5013908;28;20132;-30
2023/05/31 01:53:10;;;;;;;2.13;1.40;;;18.90;73.30;;;;;;5013379;28;20133;-30
2023/05/31 01:55:37;;;;;;;2.55;1.70;;;;;;;;;;5013713;28;20137;-30
2023/05/31 01:58:03;;;;;;;2.13;1.55;;;19.10;74.00;;;;;;5013278;28;20056;-30
2023/05/31 02:00:31;;;;;;;2.20;1.50;;;18.70;74.10;;;;;;5013584;28;20050;-30
2023/05/31 02:02:59;;;;;;;1.90;1.52;;;18.70;73.20;;;;;;5013325;28;20082;-31
2023/05/31 02:05:26;;;;;;;2.10;1.35;;;19.30;74.40;;;;;;5013394;28;20510;-30
2023/05/31 02:07:54;;;;;;;2.30;1.55;;;19.40;71.00;;;;;;5013149;28;20136;-30
2023/05/31 02:10:20;;;;;;;2.85;1.40;;;19.50;74.60;;;;;;5013350;28;20050;-30
2023/05/31 02:12:50;;;;;;;2.05;1.60;;;;;;;;;;5013071;28;20139;-31
2023/05/31 02:15:19;;;;;;;2.50;1.60;;;18.90;73.50;;;;;;5013367;28;20076;-30
2023/05/31 02:17:50;;;;;;;2.55;1.67;;;19.60;56.10;;;;;;5012940;28;20523;-31
2023/05/31 02:20:18;;;;;;;2.08;1.63;;;19.20;74.50;;;;;;5013226;28;20060;-30
2023/05/31 02:22:46;;;;;;;1.90;1.42;;;19.00;73.50;;;;;;5012774;28;20179;-30
2023/05/31 02:25:13;;;;;;;1.80;1.48;;;19.00;74.30;;;;;;4993346;28;20054;-31
2023/05/31 02:27:40;;;;;;;2.00;1.55;;;18.70;56.90;;;;;;4993613;28;20047;-31
2023/05/31 02:30:08;;;;;;;2.45;1.60;;;19.00;74.00;;;;;;4993502;28;20081;-30
2023/05/31 02:32:35;;;;;;;2.13;1.60;;;19.90;74.80;;;;;;4993238;28;20411;-30
2023/05/31 02:35:03;;;;;;;2.83;1.50;;;19.20;55.90;;;;;;4996177;28;20088;-31
2023/05/31 02:37:31;;;;;;;2.13;1.60;;;19.50;74.10;;;;;;5012469;28;20515;-30
2023/05/31 02:39:58;;;;;;;1.50;1.40;;;;;;;;;;5012668;28;20062;-32
2023/05/31 02:42:25;;;;;;;1.98;1.50;;;19.60;73.70;;;;;;5012583;28;20049;-30
2023/05/31 02:44:51;;;;;;;2.17;1.70;;;20.10;73.90;;;;;;5012981;28;20124;-31
2023/05/31 02:47:18;;;;;;;2.42;1.50;;;;;;;;;;5012630;28;20510;-32
2023/05/31 02:49:45;;;;;;;2.78;1.70;;;18.80;73.20;;;;;;5012636;28;20430;-31
2023/05/31 02:52:12;;;;;;;1.95;1.70;;;18.00;72.80;;;;;;5012366;28;20137;-30
2023/05/31 02:54:40;;;;;;;2.05;1.50;;;18.80;55.60;;;;;;5011837;28;20046;-30
2023/05/31 02:57:07;;;;;;;2.00;1.48;;;;;;;;;;5012589;28;20128;-31
2023/05/31 02:59:34;;;;;;;2.30;1.50;;;19.30;73.60;;;;;;5012613;28;20049;-30
2023/05/31 03:02:01;;;;;;;2.10;1.80;;;19.00;58.80;;;;;;5012366;28;20050;-31
2023/05/31 03:04:28;;;;;;;2.92;1.80;;;19.10;73.40;;;;;;5012271;28;20129;-33
2023/05/31 03:06:55;;;;;;;2.17;1.52;;;18.80;73.60;;;;;;5012431;28;20060;-33
2023/05/31 03:09:22;;;;;;;2.03;1.70;;;19.20;74.30;;;;;;5012632;28;20084;-33
2023/05/31 03:11:50;;;;;;;1.83;1.42;;;19.20;55.70;;;;;;5012660;28;20439;-31
2023/05/31 03:14:17;;;;;;;2.30;1.63;;;;;;;;;;5012316;28;20056;-32
2023/05/31 03:16:44;;;;;;;2.55;1.60;;;19.60;74.00;;;;;;5012319;28;20132;-33
2023/05/31 03:19:12;;;;;;;2.00;1.73;;;;;;;;;;5011955;28;20050;-32
2023/05/31 03:21:39;;;;;;;2.50;1.77;;;19.20;73.50;;;;;;5012432;28;20057;-33
2023/05/31 03:24:06;;;;;;;2.35;1.67;;;19.10;66.40;;;;;;5012087;28;20081;-33
2023/05/31 03:26:33;;;;;;;1.92;1.45;;;;;;;;;;5012003;28;20132;-33
2023/05/31 03:29:01;;;;;;;2.97;1.80;;;19.30;58.10;;;;;;5012201;28;20125;-32
2023/05/31 03:31:29;;;;;;;1.73;1.45;;;;;;;;;;5012121;28;20417;-33
2023/05/31 03:33:56;;;;;;;2.60;1.70;;;;;;;;;;5011665;28;20049;-32
2023/05/31 03:36:23;;;;;;;2.03;1.60;;;18.00;72.90;;;;;;5012060;28;20057;-33
2023/05/31 03:38:50;;;;;;;2.38;1.88;;;;;;;;;;5012042;28;20050;-33
2023/05/31 03:41:17;;;;;;;3.22;1.75;;;19.20;73.80;;;;;;5012106;28;20136;-33
2023/05/31 03:43:43;;;;;;;2.70;1.80;;;19.00;73.40;;;;;;5012012;28;20053;-33
2023/05/31 03:46:11;;;;;;;2.33;1.60;;;19.10;55.70;;;;;;5011991;28;20133;-33
2023/05/31 03:48:38;;;;;;;2.20;1.45;;;;;;;;;;4995894;28;20480;-33
2023/05/31 03:51:05;;;;;;;2.08;1.52;;;18.80;73.30;;;;;;5011962;28;20402;-33
2023/05/31 03:53:32;;;;;;;2.40;1.83;;;19.20;73.60;;;;;;5011648;28;20483;-33
2023/05/31 03:55:58;;;;;;;2.53;1.70;;;18.40;63.30;;;;;;5011855;28;20054;-33
2023/05/31 03:58:25;;;;;;;2.05;1.73;;;20.00;74.20;;;;;;5012051;28;20402;-33
2023/05/31 04:00:52;;;;;;;2.53;1.80;;;;;;;;;;5011736;28;20046;-33
2023/05/31 04:03:20;;;;;;;3.10;1.70;;;20.00;73.80;;;;;;5011935;28;20394;-33
2023/05/31 04:05:47;;;;;;;2.10;1.65;;;18.70;74.00;;;;;;5015171;28;20133;-33
2023/05/31 04:08:14;;;;;;;2.50;1.60;;;19.40;73.60;;;;;;5015822;28;20481;-33
2023/05/31 04:10:41;;;;;;;2.45;1.60;;;19.00;70.00;;;;;;5015757;28;20403;-33
2023/05/31 04:13:08;;;;;;;2.40;1.83;;;19.50;73.60;;;;;;5015439;28;20132;-33
2023/05/31 04:15:35;;;;;;;2.22;1.45;;;;;;;;;;5014977;28;20057;-33
2023/05/31 04:18:02;;;;;;;2.42;1.85;;;18.70;60.20;;;;;;5015924;28;20050;-33
2023/05/31 04:20:30;;;;;;;2.58;1.60;;;19.20;55.50;;;;;;5015654;28;20049;-32
2023/05/31 04:22:57;;;;;;;1.80;1.60;;;;;;;;;;5015063;28;20395;-32
2023/05/31 04:25:24;;;;;;;2.13;1.48;;;18.80;73.00;;;;;;5015285;28;20480;-33
2023/05/31 04:27:51;;;;;;;2.45;1.80;;;;;;;;;;5015219;28;20046;-32
2023/05/31 04:30:18;;;;;;;2.05;1.50;;;19.40;73.70;;;;;;5015053;28;20509;-33
2023/05/31 04:32:46;;;;;;;1.88;1.50;;;;;;;;;;5015105;28;20124;-33
2023/05/31 04:35:13;;;;;;;2.65;1.77;;;19.70;73.50;;;;;;5015187;28;20049;-33
2023/05/31 04:37:41;;;;;;;2.47;1.80;;;19.30;55.40;;;;;;5014731;28;20069;-32
2023/05/31 04:40:09;;;;;;;2.30;1.60;;;19.30;55.40;;;;;;5015051;28;20049;-33
2023/05/31 04:42:36;;;;;;;2.25;1.58;;;19.30;73.50;;;;;;5014861;28;20057;-33
2023/05/31 04:45:04;;;;;;;3.53;1.70;;;18.90;59.10;;;;;;5014555;28;20132;-33
2023/05/31 04:47:31;;;;;;;2.25;1.90;;;19.50;73.90;;;;;;5015001;28;20056;-33
2023/05/31 04:49:59;;;;;;;1.73;1.50;;;19.30;55.30;;;;;;5014852;28;20495;-32
2023/05/31 04:52:28;;;;;;;3.05;1.60;;;;;;;;;;5014900;28;20057;-32
2023/05/31 04:54:57;;;;;;;3.25;1.80;;;18.90;73.10;;;;;;5014495;28;20427;-33
2023/05/31 04:57:24;;;;;;;3.08;1.75;;;;;;;;;;5014934;28;20049;-32
2023/05/31 04:59:51;;;;;;;3.90;1.85;;;19.60;73.70;;;;;;5014194;28;20514;-33
2023/05/31 05:02:18;;;;;;;2.70;1.70;;;19.30;72.80;;;;;;5014682;28;20566;-33
2023/05/31 05:04:45;;;;;;;2.20;1.60;;;19.40;73.20;;;;;;5014788;28;20066;-33
2023/05/31 05:07:12;;;;;;;2.20;1.70;;;19.10;72.60;;;;;;5014272;28;20902;-33
2023/05/31 05:09:39;;;;;;;2.20;1.95;;;;;;;;;;5014754;28;20522;-30
2023/05/31 05:12:08;;;;;;;4.63;1.85;;;19.10;72.50;;;;;;5014376;28;20157;-31
2023/05/31 05:14:35;;;;;;;3.15;1.60;;;20.00;73.10;;;;;;5014260;28;20477;-31
2023/05/31 05:17:02;;;;;;;2.42;1.77;;;19.50;72.70;;;;;;5013163;28;20489;-31
2023/05/31 05:19:29;;;;;;;2.58;1.90;;;19.90;72.60;;;;;;5014230;28;20052;-31
2023/05/31 05:21:55;;;;;;;2.35;1.80;;;18.70;67.10;;;;;;5012957;28;20129;-31
2023/05/31 05:24:22;;;;;;;2.97;1.60;;;20.00;73.60;;;;;;5013942;28;20141;-31
2023/05/31 05:26:49;;;;;;;2.70;1.77;;;19.60;73.30;;;;;;5014169;28;20713;-31
2023/05/31 05:29:17;;;;;;;2.25;1.70;;;19.40;66.80;;;;;;5014343;28;20045;-31
2023/05/31 05:31:43;;;;;;;2.38;1.75;;;18.90;64.40;;;;;;5013956;28;20137;-31
2023/05/31 05:34:10;;;;;;;2.83;1.90;;;20.70;63.10;;;;;;5011482;28;20138;-31
2023/05/31 05:36:37;;;;;;;2.85;2.05;;;19.60;72.30;;;;;;5013185;28;20129;-31
2023/05/31 05:39:06;;;;;;;2.20;1.77;;;19.80;69.70;;;;;;5013890;28;20042;-31
2023/05/31 05:41:32;;;;;;;2.78;1.77;;;19.80;72.80;;;;;;5013756;28;20054;-31
2023/05/31 05:43:59;;;;;;;2.55;1.80;;;20.20;73.40;;;;;;5013887;28;20136;-31
2023/05/31 05:46:27;;;;;;;3.20;1.90;;;18.60;68.30;;;;;;5010337;28;20059;-31
2023/05/31 05:48:54;;;;;;;3.33;2.03;;;19.00;71.80;;;;;;5005393;28;20101;-31
2023/05/31 05:51:21;;;;;;;4.05;1.80;;;20.20;72.80;;;;;;5013269;28;20113;-31
2023/05/31 05:53:48;;;;;;;2.70;1.88;;;20.40;59.60;;;;;;5013053;28;20546;-31
2023/05/31 05:56:17;;;;;;;3.00;1.80;;;19.10;71.80;;;;;;5005378;28;20129;-31
2023/05/31 05:58:45;;;;;;;2.38;1.80;;;18.70;53.70;;;;;;4996300;28;20503;-31
2023/05/31 06:01:18;;;;;;;2.53;1.70;;;;;;;;;;4994018;28;20065;-31
2023/05/31 06:03:48;;;;;;;2.10;1.55;;;19.80;60.00;;;;;;4994120;28;20054;-31
2023/05/31 06:06:16;;;;;;;2.63;1.88;;;19.30;57.80;;;;;;5011677;28;20054;-31
2023/05/31 06:08:43;;;;;;;2.85;1.92;;;20.00;72.10;;;;;;5013534;28;20046;-30
2023/05/31 06:11:10;;;;;;;2.25;1.90;;;19.70;72.10;;;;;;5007200;28;20125;-31
2023/05/31 06:13:37;;;;;;;3.67;2.03;;;;;;;;;;5013080;28;20566;-31
2023/05/31 06:16:04;;;;;;;2.80;1.80;;;20.40;72.50;;;;;;5006864;28;20483;-30
2023/05/31 06:18:31;;;;;;;2.40;1.80;;;19.40;57.20;;;;;;5009221;28;20088;-31
2023/05/31 06:20:59;;;;;;;3.38;1.90;;;19.60;70.60;;;;;;5013474;28;20140;-30
2023/05/31 06:23:26;;;;;;;2.63;1.83;;;19.50;72.00;;;;;;5012666;28;20554;-30
2023/05/31 06:25:52;;;;;;;2.88;1.90;;;20.30;72.70;;;;;;5000791;28;20125;-31
2023/05/31 06:28:19;;;;;;;2.35;1.98;;;;;;;;;;5008931;28;20152;-31
2023/05/31 06:30:46;;;;;;;2.75;1.80;;;19.60;72.70;;;;;;5013170;28;20049;-30
2023/05/31 06:33:13;;;;;;;2.65;1.92;;;;;;;;;;5012588;28;20050;-32
2023/05/31 06:35:42;;;;;;;2.90;2.05;;;19.80;72.40;;;;;;5012721;28;20050;-30
2023/05/31 06:38:14;;;;;;;2.63;1.70;;;19.70;54.30;;;;;;5011093;28;20459;-31
2023/05/31 06:40:41;;;;;;;2.17;1.52;;;20.10;72.20;;;;;;4993342;28;20623;-30
2023/05/31 06:43:08;;;;;;;3.83;1.85;;;19.70;72.70;;;;;;4992853;28;20046;-30
2023/05/31 06:45:35;;;;;;;3.42;1.63;;;20.00;73.00;;;;;;4993109;28;20146;-30
2023/05/31 06:48:02;;;;;;;2.65;1.75;;;;;;;;;;4993241;28;20588;-32
2023/05/31 06:50:28;;;;;;;2.42;1.75;;;20.40;73.30;;;;;;5010506;28;20513;-30
2023/05/31 06:52:55;;;;;;;3.40;1.70;;;20.30;72.50;;;;;;5012427;28;20054;-30
2023/05/31 06:55:23;;;;;;;2.55;1.60;;;19.70;54.50;;;;;;5012551;28;20129;-31
2023/05/31 06:57:50;;;;;;;2.17;1.70;;;;;;;;;;5012659;28;20045;-32
2023/05/31 07:00:18;;;;;;;3.65;1.80;;;19.30;72.00;;;;;;4994884;28;20136;-30
2023/05/31 07:02:45;;;;;;;2.05;1.52;;;19.80;72.30;;;;;;5012240;28;20053;-30
2023/05/31 07:05:12;;;;;;;2.47;1.55;;;18.90;72.80;;;;;;5012248;28;20051;-31
2023/05/31 07:07:38;;;;;;;2.92;1.70;;;19.60;54.60;;;;;;5010093;28;20049;-31
2023/05/31 07:10:06;;;;;;;3.13;1.63;;;19.60;72.30;;;;;;5012729;28;20460;-30
2023/05/31 07:12:34;;;;;;;1.98;1.48;;;19.40;67.50;;;;;;5011546;28;20046;-30
2023/05/31 07:15:01;;;;;;;1.90;1.60;;;18.80;56.90;;;;;;5001874;28;20124;-30
2023/05/31 07:17:29;;;;;;;2.08;1.50;;;19.40;72.30;;;;;;5005200;28;20054;-30
2023/05/31 07:19:56;;;;;;;2.60;1.35;;;19.20;73.00;;;;;;5001697;28;20555;-30
2023/05/31 07:22:23;;;;;;;1.92;1.48;;;;;;;;;;5001200;28;20092;-31
2023/05/31 07:24:50;;;;;;;2.33;1.40;;;18.70;72.40;;;;;;5010083;28;20053;-31
2023/05/31 07:27:17;;;;;;;1.90;1.48;;;;;;;;;;5012128;28;20138;-32
2023/05/31 07:29:45;;;;;;;2.20;1.48;;;18.90;72.50;;;;;;5001709;28;20042;-30
2023/05/31 07:32:12;;;;;;;1.90;1.50;;;;;;;;;;5004271;28;20463;-31
2023/05/31 07:34:39;;;;;;;2.25;1.70;;;;;;;;;;5001386;28;20046;-32
2023/05/31 07:37:07;;;;;;;2.47;1.30;;;19.50;54.70;;;;;;5008197;28;20057;-31
2023/05/31 07:39:34;;;;;;;1.85;1.38;;;19.30;61.50;;;;;;5015471;28;20100;-31
2023/05/31 07:42:01;;;;;;;2.40;1.60;;;20.40;72.90;;;;;;5018630;28;20132;-30
2023/05/31 07:44:28;;;;;;;2.90;1.40;;;19.50;54.80;;;;;;5018372;28;20054;-31
2023/05/31 07:46:56;;;;;;;1.90;1.40;;;19.20;72.20;;;;;;5018349;28;20046;-30
2023/05/31 07:49:23;;;;;;;2.97;1.40;;;19.10;72.50;;;;;;5018602;28;20471;-30
2023/05/31 07:51:49;;;;;;;1.75;1.30;;;19.60;73.10;;;;;;5011383;28;20136;-30
2023/05/31 07:54:16;;;;;;;2.38;1.50;;;19.30;67.70;;;;;;5007958;28;20515;-30
2023/05/31 07:56:43;;;;;;;3.78;1.33;;;19.70;63.40;;;;;;5009414;28;20052;-30
2023/05/31 07:59:10;;;;;;;1.67;1.40;;;19.50;72.80;;;;;;5007447;28;20054;-30
2023/05/31 08:01:37;;;;;;;1.95;1.40;;;19.80;72.10;;;;;;5010293;28;20129;-30
2023/05/31 08:04:08;;;;;;;1.60;1.45;;;19.30;71.90;;;;;;5008079;28;20535;-31
2023/05/31 08:06:36;;;;;;;1.83;1.38;;;18.80;71.70;;;;;;5015121;28;20051;-31
2023/05/31 08:09:03;;;;;;;1.75;1.40;;;19.80;66.00;;;;;;5003867;28;20045;-30
2023/05/31 08:11:29;;;;;;;3.08;1.67;;;19.70;72.00;;;;;;4998326;28;20057;-30
2023/05/31 08:13:56;;;;;;;2.03;1.30;;;20.00;59.80;;;;;;4998703;28;20145;-31
2023/05/31 08:16:23;;;;;;;2.03;1.40;;;19.40;69.00;;;;;;5018375;28;20129;-31
2023/05/31 08:18:49;;;;;;;2.20;1.40;;;19.80;72.40;;;;;;5018068;28;20076;-30
2023/05/31 08:21:17;;;;;;;1.80;1.40;;;19.50;72.20;;;;;;5001597;28;20141;-30
2023/05/31 08:23:44;;;;;;;1.73;1.40;;;20.60;73.30;;;;;;5006317;28;20046;-30
2023/05/31 08:26:11;;;;;;;2.08;1.45;;;19.70;72.50;;;;;;5018382;28;20100;-30
2023/05/31 08:28:38;;;;;;;2.50;1.40;;;19.80;72.60;;;;;;5018212;28;20422;-31
2023/05/31 08:31:05;;;;;;;1.83;1.40;;;19.90;72.60;;;;;;5017851;28;20050;-31
2023/05/31 08:33:32;;;;;;;1.58;1.40;;;19.40;71.90;;;;;;5017873;28;20533;-30
2023/05/31 08:35:59;;;;;;;2.17;1.30;;;;;;;;;;5017492;28;20081;-31
2023/05/31 08:38:27;;;;;;;1.88;1.30;;;20.50;72.00;;;;;;5017276;28;20062;-31
2023/05/31 08:40:55;;;;;;;1.60;1.33;;;20.10;71.70;;;;;;5012504;28;20037;-31
2023/05/31 08:43:25;;;;;;;1.40;1.30;;;20.10;67.80;;;;;;5017509;28;20476;-31
2023/05/31 08:45:52;;;;;;;2.25;1.30;;;20.90;58.20;;;;;;5015768;28;20080;-31
2023/05/31 08:48:22;;;;;;;3.75;1.40;;;20.20;71.60;;;;;;5017074;28;20133;-31
2023/05/31 08:50:49;;;;;;;1.45;1.20;;;19.80;71.30;;;;;;5017134;28;20375;-31
2023/05/31 08:53:16;;;;;;;3.63;1.25;;;20.80;56.90;;;;;;5014668;28;20132;-31
2023/05/31 08:55:44;;;;;;;1.98;1.33;;;20.50;71.70;;;;;;5014951;28;20057;-31
2023/05/31 08:58:11;;;;;;;1.50;1.20;;;19.00;70.80;;;;;;5014960;28;20517;-31
2023/05/31 09:00:38;;;;;;;2.30;1.42;;;;;;;;;;5014431;28;20056;-32
2023/05/31 09:03:06;;;;;;;1.25;1.10;;;20.50;69.30;;;;;;5014672;28;20133;-31
2023/05/31 09:05:33;;;;;;;1.63;1.30;;;19.50;71.60;;;;;;5014558;28;20085;-31
2023/05/31 09:08:00;;;;;;;1.67;1.33;;;20.00;71.70;;;;;;5015012;28;20126;-31
2023/05/31 09:10:28;;;;;;;2.53;1.50;;;20.50;71.70;;;;;;5014848;28;20056;-30
2023/05/31 09:12:56;;;;;;;1.52;1.20;;;20.00;71.00;;;;;;5014481;28;20103;-33
2023/05/31 09:15:23;;;;;;;1.90;1.30;;;20.00;66.10;;;;;;5014066;28;20084;-33
2023/05/31 09:17:50;;;;;;;1.65;1.20;;;;;;;;;;5014341;28;20057;-31
2023/05/31 09:20:18;;;;;;;1.73;1.20;;;20.70;61.50;;;;;;5013766;28;20050;-33
2023/05/31 09:22:47;;;;;;;2.15;1.30;;;20.70;56.80;;;;;;4994693;28;20141;-33
2023/05/31 09:25:15;;;;;;;1.90;1.40;;;;;;;;;;4994925;28;20046;-33
2023/05/31 09:27:41;;;;;;;1.65;1.27;;;20.10;71.20;;;;;;4997360;28;20053;-33
2023/05/31 09:30:11;;;;;;;2.13;1.30;;;19.70;71.60;;;;;;5013832;28;20120;-33
2023/05/31 09:32:37;;;;;;;1.30;1.20;;;20.20;70.90;;;;;;5013965;28;20562;-34
2023/05/31 09:35:10;;;;;;;1.75;1.00;;;20.60;71.00;;;;;;5014335;28;20128;-33
2023/05/31 09:37:43;;;;;;;2.20;1.25;;;20.90;70.80;;;;;;5013813;28;20145;-33
2023/05/31 09:40:10;;;;;;;2.38;1.20;;;20.30;69.10;;;;;;5014252;28;20048;-33
2023/05/31 09:42:37;;;;;;;1.85;1.25;;;;;;;;;;5013691;28;20136;-32
2023/05/31 09:45:05;;;;;;;1.50;1.10;;;20.60;71.50;;;;;;5013509;28;20046;-33
2023/05/31 09:47:33;;;;;;;2.38;1.30;;;21.30;71.30;;;;;;5013885;28;20492;-33
2023/05/31 09:50:00;;;;;;;2.83;1.55;;;20.40;58.20;;;;;;5007160;28;20129;-33
2023/05/31 09:52:28;;;;;;;1.70;1.30;;;20.30;70.70;;;;;;5007280;28;20489;-33
2023/05/31 09:54:55;;;;;;;1.90;1.27;;;;;;;;;;5013942;28;20050;-33
2023/05/31 09:57:31;;;;;;;2.05;1.40;;;20.50;71.50;;;;;;5013337;28;20056;-33
2023/05/31 09:59:59;;;;;;;1.58;1.17;;;20.50;70.70;;;;;;5013813;28;20077;-34
2023/05/31 10:02:26;;;;;;;2.08;1.30;;;;;;;;;;5012867;28;20517;-33
2023/05/31 10:04:55;;;;;;;1.92;1.20;;;20.10;70.50;;;;;;5013628;28;20052;-33
2023/05/31 10:07:22;;;;;;;2.40;1.20;;;;;;;;;;5013515;28;20128;-33
2023/05/31 10:09:49;;;;;;;2.20;1.40;;;20.90;70.80;;;;;;5009832;28;20125;-33
2023/05/31 10:12:16;;;;;;;1.25;1.15;;;;;;;;;;5005370;28;20053;-32
2023/05/31 10:14:43;;;;;;;1.98;1.30;;;;;;;;;;5012091;28;20131;-33
2023/05/31 10:17:11;;;;;;;2.10;1.40;;;20.70;53.20;;;;;;5012393;28;20144;-31
2023/05/31 10:19:40;;;;;;;1.65;1.20;;;21.20;71.00;;;;;;5012935;28;20064;-30
2023/05/31 10:22:08;;;;;;;1.75;1.30;;;20.70;53.20;;;;;;5013187;28;20140;-31
2023/05/31 10:24:41;;;;;;;3.08;1.30;;;20.60;70.60;;;;;;5013476;28;20125;-30
2023/05/31 10:27:11;;;;;;;3.65;1.30;;;21.30;71.40;;;;;;5013331;28;20108;-30
2023/05/31 10:29:41;;;;;;;2.00;1.33;;;20.80;70.60;;;;;;5012863;28;20140;-31
2023/05/31 10:32:09;;;;;;;1.60;1.33;;;21.10;70.60;;;;;;5012307;28;20594;-30
2023/05/31 10:34:36;;;;;;;1.85;1.17;;;21.00;70.80;;;;;;5012954;28;20133;-30
2023/05/31 10:37:05;;;;;;;3.35;1.30;;;20.80;61.30;;;;;;5011639;28;20500;-31
2023/05/31 10:39:35;;;;;;;1.45;1.17;;;20.80;64.40;;;;;;5013095;28;20084;-30
2023/05/31 10:42:07;;;;;;;1.48;1.17;;;20.40;70.70;;;;;;5012284;28;20045;-30
2023/05/31 10:44:38;;;;;;;2.05;1.20;;;20.80;53.10;;;;;;5012690;28;20060;-31
2023/05/31 10:47:07;;;;;;;1.33;1.10;;;20.50;56.00;;;;;;5012373;28;20054;-30
2023/05/31 10:49:34;;;;;;;2.33;1.50;;;20.90;71.00;;;;;;5013004;28;20096;-30
2023/05/31 10:52:05;;;;;;;2.13;1.20;;;21.40;71.70;;;;;;5012791;28;20508;-31
2023/05/31 10:54:32;;;;;;;1.75;1.33;;;20.80;54.60;;;;;;5012583;28;20125;-31
2023/05/31 10:57:03;;;;;;;2.85;1.30;;;20.80;53.10;;;;;;5012441;28;20084;-33
2023/05/31 10:59:30;;;;;;;2.95;1.40;;;20.20;63.60;;;;;;5002464;28;20041;-30
2023/05/31 11:01:59;;;;;;;4.30;1.40;;;20.60;70.50;;;;;;5012123;28;20120;-30
2023/05/31 11:04:27;;;;;;;3.78;1.35;;;21.10;70.80;;;;;;5012237;28;20049;-30
2023/05/31 11:06:54;;;;;;;5.50;1.60;;;;;;;;;;5012558;28;20061;-31
2023/05/31 11:09:20;;;;;;;6.63;1.75;;;20.60;70.60;;;;;;5012324;28;20562;-30
2023/05/31 11:11:48;;;;;;;3.35;1.50;;;21.30;71.00;;;;;;5012378;28;20045;-30
2023/05/31 11:14:34;;;;;;;4.00;1.60;;;21.70;71.10;;;;;;5010729;28;20053;-31
2023/05/31 11:17:13;;;;;;;3.67;1.85;;;21.60;71.20;;;;;;5012408;28;20133;-30
2023/05/31 11:19:42;;;;;;;3.88;1.60;;;;;;;;;;5012268;28;20046;-31
2023/05/31 11:22:09;;;;;;;3.60;1.70;;;20.90;71.00;;;;;;5012177;28;20084;-31
2023/05/31 11:24:37;;;;;;;2.50;1.20;;;21.20;53.60;;;;;;5012163;28;20056;-31
2023/05/31 11:27:05;;;;;;;3.78;1.63;;;21.20;53.60;;;;;;5011962;28;20400;-31
2023/05/31 11:29:59;;;;;;;4.47;1.38;;;21.20;53.60;;;;;;5011717;28;20061;-32
2023/05/31 11:32:59;;;;;;;3.83;1.40;;;20.90;71.00;;;;;;5000467;28;20046;-30
2023/05/31 11:35:26;;;;;;;4.32;1.83;;;21.50;71.80;;;;;;5009166;28;20053;-30
2023/05/31 11:38:06;;;;;;;4.43;1.67;;;21.20;53.60;;;;;;5011542;28;20046;-31
2023/05/31 11:40:35;;;;;;;3.95;1.70;;;;;;;;;;5012102;28;20046;-32
2023/05/31 11:43:07;;;;;;;2.72;1.38;;;22.20;71.30;;;;;;5011105;28;20133;-31
2023/05/31 11:45:35;;;;;;;2.35;1.50;;;21.20;71.60;;;;;;5011878;28;20045;-31
2023/05/31 11:48:34;;;;;;;4.30;1.60;;;21.50;70.90;;;;;;5011596;28;20105;-31
2023/05/31 11:51:01;;;;;;;2.38;1.40;;;21.60;57.00;;;;;;4954459;28;20056;-31
2023/05/31 11:53:28;;;;;;;3.17;1.60;;;20.90;55.90;;;;;;5011887;28;20054;-30
2023/05/31 11:55:58;;;;;;;2.60;1.48;;;;;;;;;;5011651;28;20509;-31
2023/05/31 11:58:26;;;;;;;2.47;1.50;;;21.80;71.90;;;;;;5012283;28;20045;-31
2023/05/31 12:00:58;;;;;;;2.90;1.48;;;20.80;71.30;;;;;;5011605;28;20125;-30
2023/05/31 12:03:25;;;;;;;6.15;1.60;;;20.90;70.60;;;;;;5011753;28;20080;-30
2023/05/31 12:05:52;;;;;;;1.85;1.30;;;;;;;;;;5011691;28;20057;-31
2023/05/31 12:08:18;;;;;;;3.63;1.40;;;21.00;71.10;;;;;;5011932;28;20133;-30
2023/05/31 12:10:46;;;;;;;3.20;1.60;;;;;;;;;;5011721;28;20049;-30
2023/05/31 12:13:16;;;;;;;2.97;1.50;;;21.10;70.70;;;;;;5011778;28;20053;-31
2023/05/31 12:15:43;;;;;;;2.42;1.40;;;21.40;71.30;;;;;;5011589;28;20133;-31
2023/05/31 12:18:12;;;;;;;1.85;1.23;;;22.10;71.20;;;;;;5011677;28;20050;-30
2023/05/31 12:20:39;;;;;;;2.72;1.30;;;22.00;71.60;;;;;;5011673;28;20133;-31
2023/05/31 12:23:11;;;;;;;2.10;1.25;;;21.10;59.70;;;;;;5010886;28;20058;-31
2023/05/31 12:25:37;;;;;;;2.72;1.40;;;20.50;70.40;;;;;;5013006;28;20049;-31
2023/05/31 12:28:04;;;;;;;2.67;1.30;;;20.80;57.10;;;;;;5015473;28;20133;-31
2023/05/31 12:30:31;;;;;;;1.80;1.30;;;;;;;;;;5015428;28;20129;-31
2023/05/31 12:32:59;;;;;;;3.15;1.25;;;;;;;;;;5014934;28;20145;-31
2023/05/31 12:35:27;;;;;;;1.85;1.30;;;21.30;71.70;;;;;;5015238;28;20056;-31
2023/05/31 12:37:54;;;;;;;2.25;1.30;;;21.30;71.20;;;;;;5014807;28;20050;-30
2023/05/31 12:40:22;;;;;;;2.40;1.50;;;21.20;53.70;;;;;;5015039;28;20514;-32
2023/05/31 12:42:49;;;;;;;1.98;1.40;;;20.60;56.10;;;;;;5014531;28;20580;-31
2023/05/31 12:45:18;;;;;;;2.65;1.30;;;21.50;71.70;;;;;;5014984;28;20141;-31
2023/05/31 12:47:45;;;;;;;1.70;1.40;;;;;;;;;;5014970;28;20049;-31
2023/05/31 12:50:12;;;;;;;3.13;1.40;;;20.80;71.20;;;;;;5014953;28;20494;-30
2023/05/31 12:52:40;;;;;;;1.58;1.20;;;20.90;56.90;;;;;;5014943;28;20050;-31
2023/05/31 12:55:08;;;;;;;2.28;1.48;;;20.80;54.50;;;;;;5015103;28;20133;-31
2023/05/31 12:57:34;;;;;;;2.28;1.42;;;21.00;71.60;;;;;;5014588;28;20388;-30
2023/05/31 13:00:04;;;;;;;2.97;1.38;;;21.10;53.70;;;;;;5014825;28;20089;-31
2023/05/31 13:02:31;;;;;;;2.85;1.35;;;21.00;71.20;;;;;;5014205;28;20061;-30
2023/05/31 13:04:58;;;;;;;2.25;1.30;;;20.60;70.10;;;;;;5014626;28;20064;-31
2023/05/31 13:07:24;;;;;;;1.92;1.30;;;20.80;71.30;;;;;;5014824;28;20053;-31
2023/05/31 13:09:53;;;;;;;2.47;1.20;;;21.60;54.30;;;;;;5014868;28;20533;-30